createdAt,value
2022-09-12T00:01:35.878Z,101159.50
2022-09-12T00:04:03.563Z,101005.84
2022-09-12T00:06:33.581Z,100979.84
2022-09-12T00:09:04.458Z,101153.63
2022-09-12T00:11:31.262Z,100854.88
2022-09-12T00:13:59.989Z,101155.88
2022-09-12T00:16:28.740Z,100967.75
2022-09-12T00:18:55.431Z,101075.00
2022-09-12T00:21:23.520Z,101154.06
2022-09-12T00:23:51.551Z,100946.63
2022-09-12T00:26:19.721Z,101143.78
2022-09-12T00:28:46.916Z,101112.50
2022-09-12T00:31:21.075Z,101155.13
2022-09-12T00:33:47.908Z,101109.53
2022-09-12T00:36:20.232Z,101057.03
2022-09-12T00:38:49.167Z,101083.66
2022-09-12T00:41:26.708Z,101129.44
2022-09-12T00:44:00.450Z,100876.50
2022-09-12T00:46:41.938Z,101131.53
2022-09-12T00:49:23.112Z,101140.25
2022-09-12T00:52:02.074Z,100984.72
2022-09-12T00:54:33.934Z,101025.50
2022-09-12T00:57:06.513Z,100863.41
2022-09-12T00:59:48.510Z,100958.16
2022-09-12T01:02:15.510Z,101020.25
2022-09-12T01:04:44.441Z,101011.53
2022-09-12T01:07:13.272Z,100897.41
2022-09-12T01:09:41.723Z,101117.44
2022-09-12T01:12:08.821Z,100977.94
2022-09-12T01:14:36.996Z,100996.66
2022-09-12T01:17:03.938Z,100836.22
2022-09-12T01:19:48.834Z,101113.88
2022-09-12T01:22:53.101Z,101112.69
2022-09-12T01:25:50.235Z,101107.00
2022-09-12T01:28:29.176Z,100936.63
2022-09-12T01:31:04.830Z,101109.66
2022-09-12T01:33:45.007Z,101063.84
2022-09-12T01:36:28.317Z,101040.28
2022-09-12T01:39:02.100Z,101043.56
2022-09-12T01:41:42.886Z,101105.31
2022-09-12T01:44:25.434Z,101106.53
2022-09-12T01:46:59.758Z,100953.84
2022-09-12T01:49:52.440Z,101070.81
2022-09-12T01:52:50.082Z,101104.28
2022-09-12T01:55:23.538Z,101078.50
2022-09-12T01:58:07.904Z,101012.94
2022-09-12T02:00:52.052Z,100934.06
2022-09-12T02:03:29.516Z,101105.34
2022-09-12T02:06:08.648Z,100786.34
2022-09-12T02:08:43.332Z,100889.94
2022-09-12T02:11:11.833Z,101090.00
2022-09-12T02:13:43.140Z,101024.88
2022-09-12T02:16:34.199Z,101010.31
2022-09-12T02:19:16.065Z,100916.09
2022-09-12T02:21:49.108Z,100928.41
2022-09-12T02:24:18.250Z,101080.66
2022-09-12T02:26:54.584Z,101087.75
2022-09-12T02:29:21.391Z,100894.94
2022-09-12T02:31:52.811Z,101083.56
2022-09-12T02:35:12.259Z,101072.59
2022-09-12T02:37:56.011Z,100908.88
2022-09-12T02:40:23.323Z,100976.22
2022-09-12T02:42:50.551Z,101045.03
2022-09-12T02:45:17.952Z,100962.50
2022-09-12T02:48:04.253Z,101067.81
2022-09-12T02:50:32.132Z,100980.63
2022-09-12T02:53:04.338Z,101009.66
2022-09-12T02:55:34.006Z,100967.94
2022-09-12T02:58:06.831Z,100991.03
2022-09-12T03:00:48.027Z,100893.69
2022-09-12T03:03:33.286Z,101055.19
2022-09-12T03:06:03.142Z,100934.19
2022-09-12T03:08:40.231Z,100963.69
2022-09-12T03:11:16.427Z,101062.13
2022-09-12T03:14:00.117Z,101057.88
2022-09-12T03:16:46.663Z,101054.69
2022-09-12T03:19:14.476Z,100992.19
2022-09-12T03:21:56.394Z,101061.16
2022-09-12T03:24:38.151Z,100895.59
2022-09-12T03:27:17.439Z,101020.88
2022-09-12T03:29:50.803Z,100963.78
2022-09-12T03:32:18.166Z,101055.97
2022-09-12T03:34:45.233Z,101058.63
2022-09-12T03:37:11.877Z,101054.59
2022-09-12T03:39:38.491Z,101001.53
2022-09-12T03:42:05.263Z,100958.41
2022-09-12T03:44:31.842Z,100927.72
2022-09-12T03:46:58.771Z,100818.06
2022-09-12T03:49:25.343Z,101025.00
2022-09-12T03:51:55.259Z,101005.00
2022-09-12T03:54:21.981Z,100863.03
2022-09-12T03:56:48.579Z,101048.97
2022-09-12T03:59:16.116Z,100864.41
2022-09-12T04:01:42.776Z,101053.63
2022-09-12T04:04:09.895Z,101058.72
2022-09-12T04:06:36.458Z,101047.59
2022-09-12T04:09:03.759Z,101049.81
2022-09-12T04:11:32.167Z,101053.44
2022-09-12T04:13:58.762Z,101055.66
2022-09-12T04:16:25.397Z,100956.56
2022-09-12T04:18:51.984Z,101049.81
2022-09-12T04:21:23.314Z,100874.50
2022-09-12T04:23:50.355Z,101042.91
2022-09-12T04:26:18.437Z,100929.13
2022-09-12T04:28:46.944Z,100996.66
2022-09-12T04:31:17.985Z,101031.50
2022-09-12T04:33:45.539Z,101030.66
2022-09-12T04:36:16.947Z,101037.31
2022-09-12T04:38:45.411Z,101028.56
2022-09-12T04:41:19.403Z,100831.44
2022-09-12T04:43:46.875Z,101035.66
2022-09-12T04:46:15.407Z,100952.97
2022-09-12T04:48:44.023Z,100871.09
2022-09-12T04:51:15.856Z,100889.63
2022-09-12T04:53:50.295Z,100782.22
2022-09-12T04:56:16.945Z,100883.41
2022-09-12T04:58:43.939Z,100762.91
2022-09-12T05:01:14.677Z,101022.72
2022-09-12T05:03:43.495Z,100940.22
2022-09-12T05:06:16.604Z,100998.22
2022-09-12T05:08:43.938Z,100986.00
2022-09-12T05:11:26.657Z,101012.34
2022-09-12T05:13:58.586Z,101030.94
2022-09-12T05:16:28.546Z,100924.63
2022-09-12T05:18:59.212Z,100480.22
2022-09-12T05:21:27.055Z,100929.34
2022-09-12T05:23:55.705Z,100833.97
2022-09-12T05:26:23.854Z,100991.94
2022-09-12T05:28:52.203Z,100985.34
2022-09-12T05:31:23.115Z,100970.41
2022-09-12T05:33:52.647Z,100594.91
2022-09-12T05:36:28.686Z,101023.22
2022-09-12T05:38:57.094Z,100985.59
2022-09-12T05:41:26.078Z,101018.72
2022-09-12T05:43:57.792Z,101019.38
2022-09-12T05:46:27.145Z,100815.53
2022-09-12T05:48:56.308Z,101023.19
2022-09-12T05:51:26.712Z,100840.13
2022-09-12T05:53:57.027Z,101026.50
2022-09-12T05:56:26.155Z,101028.50
2022-09-12T05:58:59.728Z,100910.69
2022-09-12T06:01:28.120Z,100972.91
2022-09-12T06:03:58.404Z,100922.13
2022-09-12T06:06:27.764Z,100949.31
2022-09-12T06:09:00.764Z,100730.88
2022-09-12T06:11:30.486Z,100623.94
2022-09-12T06:13:58.519Z,101037.69
2022-09-12T06:16:30.646Z,101007.78
2022-09-12T06:19:03.093Z,101036.75
2022-09-12T06:21:31.306Z,101041.97
2022-09-12T06:24:01.578Z,101029.06
2022-09-12T06:26:29.291Z,100977.03
2022-09-12T06:28:58.437Z,101026.94
2022-09-12T06:31:29.146Z,101023.91
2022-09-12T06:33:59.360Z,101036.94
2022-09-12T06:36:28.676Z,101042.75
2022-09-12T06:39:01.137Z,100925.22
2022-09-12T06:41:29.117Z,101027.75
2022-09-12T06:43:56.071Z,100997.06
2022-09-12T06:46:23.323Z,100990.91
2022-09-12T06:48:50.617Z,100869.75
2022-09-12T06:51:20.065Z,101035.78
2022-09-12T06:53:48.404Z,100985.16
2022-09-12T06:56:20.717Z,101039.53
2022-09-12T06:58:49.953Z,100897.50
2022-09-12T07:01:22.207Z,101028.53
2022-09-12T07:03:51.684Z,100798.16
2022-09-12T07:06:21.130Z,100967.75
2022-09-12T07:08:48.485Z,101024.06
2022-09-12T07:11:20.164Z,101033.22
2022-09-12T07:13:49.534Z,101037.19
2022-09-12T07:16:19.899Z,100964.34
2022-09-12T07:19:02.654Z,101030.16
2022-09-12T07:21:30.299Z,101007.63
2022-09-12T07:24:00.599Z,100870.06
2022-09-12T07:26:30.378Z,100972.13
2022-09-12T07:29:18.638Z,100957.97
2022-09-12T07:31:45.712Z,101022.81
2022-09-12T07:34:12.878Z,100910.56
2022-09-12T07:36:39.629Z,100834.56
2022-09-12T07:39:07.347Z,100890.22
2022-09-12T07:41:34.247Z,100812.53
2022-09-12T07:44:03.200Z,100916.72
2022-09-12T07:46:31.567Z,100825.06
2022-09-12T07:49:00.078Z,101030.84
2022-09-12T07:51:28.870Z,100990.31
2022-09-12T07:53:57.283Z,101033.69
2022-09-12T07:56:30.522Z,100791.66
2022-09-12T07:58:59.918Z,100889.78
2022-09-12T08:01:26.990Z,101029.75
2022-09-12T08:03:59.373Z,101032.22
2022-09-12T08:06:30.306Z,101036.53
2022-09-12T08:08:59.573Z,100945.59
2022-09-12T08:11:30.706Z,100882.16
2022-09-12T08:13:58.280Z,100858.38
2022-09-12T08:16:31.300Z,101035.47
2022-09-12T08:19:04.392Z,101027.34
2022-09-12T08:21:32.842Z,101036.78
2022-09-12T08:24:02.564Z,100937.09
2022-09-12T08:26:31.210Z,100660.00
2022-09-12T08:28:58.598Z,100653.66
2022-09-12T08:31:27.363Z,100842.13
2022-09-12T08:33:58.163Z,101038.75
2022-09-12T08:36:27.390Z,101031.06
2022-09-12T08:38:59.892Z,100975.75
2022-09-12T08:41:39.586Z,101032.78
2022-09-12T08:44:15.847Z,100855.59
2022-09-12T08:47:01.462Z,101029.09
2022-09-12T08:49:53.769Z,101036.06
2022-09-12T08:52:25.117Z,101023.31
2022-09-12T08:54:53.811Z,101036.03
2022-09-12T08:57:24.203Z,101022.91
2022-09-12T08:59:52.995Z,100945.91
2022-09-12T09:02:42.226Z,101031.00
2022-09-12T09:05:37.180Z,101021.00
2022-09-12T09:08:32.723Z,100859.63
2022-09-12T09:11:16.793Z,101021.94
2022-09-12T09:14:20.753Z,100973.31
2022-09-12T09:16:50.675Z,100674.19
2022-09-12T09:19:20.281Z,100983.63
2022-09-12T09:22:13.574Z,100899.50
2022-09-12T09:24:45.986Z,100772.88
2022-09-12T09:27:39.896Z,100988.97
2022-09-12T09:30:16.091Z,100910.94
2022-09-12T09:32:44.093Z,100993.50
2022-09-12T09:35:24.910Z,100942.78
2022-09-12T09:38:09.642Z,100903.41
2022-09-12T09:40:49.202Z,100979.91
2022-09-12T09:43:25.567Z,100974.63
2022-09-12T09:45:53.065Z,100979.50
2022-09-12T09:48:27.336Z,100979.22
2022-09-12T09:50:54.158Z,100970.22
2022-09-12T09:53:35.179Z,100913.06
2022-09-12T09:56:07.866Z,100910.84
2022-09-12T09:58:35.900Z,100969.03
2022-09-12T10:01:07.469Z,100967.06
2022-09-12T10:03:40.435Z,100551.97
2022-09-12T10:06:28.843Z,100892.81
2022-09-12T10:09:09.591Z,100670.41
2022-09-12T10:11:39.768Z,100611.56
2022-09-12T10:14:27.056Z,100953.88
2022-09-12T10:16:53.881Z,100895.03
2022-09-12T10:19:26.886Z,100948.28
2022-09-12T10:21:57.138Z,100787.38
2022-09-12T10:24:31.439Z,100854.88
2022-09-12T10:27:06.158Z,100937.78
2022-09-12T10:29:39.308Z,100760.81
2022-09-12T10:32:09.271Z,100825.47
2022-09-12T10:34:38.178Z,100939.97
2022-09-12T10:37:08.318Z,100758.09
2022-09-12T10:39:38.403Z,100923.34
2022-09-12T10:42:08.399Z,100870.13
2022-09-12T10:44:35.598Z,100932.00
2022-09-12T10:47:32.000Z,100896.91
2022-09-12T10:50:39.149Z,100773.56
2022-09-12T10:53:20.422Z,100726.25
2022-09-12T10:56:10.079Z,100913.22
2022-09-12T10:58:58.529Z,100911.94
2022-09-12T11:01:49.340Z,100906.81
2022-09-12T11:04:24.963Z,100902.56
2022-09-12T11:07:14.147Z,100896.09
2022-09-12T11:09:47.099Z,100890.72
2022-09-12T11:12:23.657Z,100903.16
2022-09-12T11:15:22.414Z,100840.38
2022-09-12T11:18:04.632Z,100712.78
2022-09-12T11:21:09.706Z,100869.41
2022-09-12T11:23:56.046Z,100860.16
2022-09-12T11:26:50.689Z,100743.84
2022-09-12T11:29:22.264Z,100602.00
2022-09-12T11:32:31.447Z,100853.41
2022-09-12T11:35:25.240Z,100854.28
2022-09-12T11:37:55.494Z,100847.88
2022-09-12T11:41:02.420Z,100851.44
2022-09-12T11:43:56.296Z,100851.75
2022-09-12T11:46:31.687Z,100851.19
2022-09-12T11:49:05.709Z,100760.22
2022-09-12T11:52:00.577Z,100848.34
2022-09-12T11:54:42.595Z,100791.41
2022-09-12T11:57:35.800Z,100846.31
2022-09-12T12:00:36.236Z,100813.78
2022-09-12T12:03:07.405Z,100834.25
2022-09-12T12:05:50.494Z,100827.00
2022-09-12T12:08:17.390Z,100843.53
2022-09-12T12:10:51.456Z,100803.25
2022-09-12T12:13:21.099Z,100626.03
2022-09-12T12:15:53.582Z,100835.47
2022-09-12T12:18:23.944Z,100830.41
2022-09-12T12:20:53.299Z,100737.09
2022-09-12T12:23:34.963Z,100769.50
2022-09-12T12:26:03.926Z,100798.47
2022-09-12T12:28:42.902Z,100828.69
2022-09-12T12:31:11.870Z,100816.84
2022-09-12T12:33:38.384Z,100814.03
2022-09-12T12:36:10.812Z,100816.53
2022-09-12T12:38:40.124Z,100700.84
2022-09-12T12:41:19.090Z,100807.56
2022-09-12T12:43:53.295Z,100619.84
2022-09-12T12:46:28.620Z,100730.56
2022-09-12T12:49:29.382Z,100779.34
2022-09-12T12:52:01.600Z,100472.44
2022-09-12T12:54:52.538Z,100697.91
2022-09-12T12:57:22.455Z,100773.56
2022-09-12T12:59:56.724Z,100762.53
2022-09-12T13:02:37.517Z,100660.69
2022-09-12T13:05:16.320Z,100761.72
2022-09-12T13:07:48.083Z,100770.13
2022-09-12T13:10:29.564Z,100754.03
2022-09-12T13:13:00.031Z,100427.59
2022-09-12T13:15:56.470Z,100726.25
2022-09-12T13:18:45.641Z,100748.22
2022-09-12T13:21:14.933Z,100635.78
2022-09-12T13:23:42.222Z,100560.16
2022-09-12T13:26:12.530Z,100744.72
2022-09-12T13:28:39.245Z,100684.13
2022-09-12T13:31:32.879Z,100742.25
2022-09-12T13:34:05.601Z,100741.63
2022-09-12T13:36:41.632Z,100737.28
2022-09-12T13:39:29.221Z,100603.69
2022-09-12T13:42:03.128Z,100650.97
2022-09-12T13:44:32.894Z,100570.41
2022-09-12T13:47:03.586Z,100561.16
2022-09-12T13:49:37.750Z,100707.00
2022-09-12T13:52:14.875Z,100412.28
2022-09-12T13:54:46.081Z,100738.00
2022-09-12T13:57:32.415Z,100677.41
2022-09-12T14:00:06.289Z,100664.28
2022-09-12T14:02:36.738Z,100677.53
2022-09-12T14:05:14.528Z,100728.91
2022-09-12T14:08:08.599Z,100718.75
2022-09-12T14:13:32.160Z,100569.34
2022-09-12T14:16:00.573Z,100655.06
2022-09-12T14:18:31.245Z,100478.69
2022-09-12T14:21:10.484Z,100265.28
2022-09-12T14:23:42.795Z,100519.72
2022-09-12T14:26:13.416Z,100698.81
2022-09-12T14:28:42.363Z,100632.00
2022-09-12T14:31:19.151Z,100677.63
2022-09-12T14:34:08.846Z,100437.03
2022-09-12T14:36:40.258Z,100673.66
2022-09-12T14:39:18.297Z,100672.41
2022-09-12T14:41:46.546Z,100584.06
2022-09-12T14:44:39.710Z,100669.41
2022-09-12T14:47:16.583Z,100660.84
2022-09-12T14:49:43.734Z,100471.56
2022-09-12T14:52:40.399Z,100582.84
2022-09-12T14:55:18.805Z,100653.09
2022-09-12T14:57:47.898Z,100279.34
2022-09-12T15:00:22.200Z,100645.94
2022-09-12T15:02:51.099Z,100482.53
2022-09-12T15:05:21.818Z,100646.72
2022-09-12T15:07:54.698Z,100653.22
2022-09-12T15:10:27.638Z,100290.31
2022-09-12T15:13:17.759Z,100322.56
2022-09-12T15:15:53.683Z,100539.22
2022-09-12T15:18:22.394Z,100598.06
2022-09-12T15:20:52.909Z,100651.69
2022-09-12T15:23:35.252Z,100245.25
2022-09-12T15:26:02.533Z,100433.88
2022-09-12T15:28:31.984Z,100650.75
2022-09-12T15:31:06.673Z,100638.56
2022-09-12T15:33:33.787Z,100510.50
2022-09-12T15:36:00.493Z,100618.88
2022-09-12T15:38:27.262Z,100548.31
2022-09-12T15:40:54.748Z,100340.94
2022-09-12T15:43:25.411Z,100592.28
2022-09-12T15:45:53.351Z,100567.81
2022-09-12T15:48:21.087Z,100619.66
2022-09-12T15:50:48.452Z,100622.97
2022-09-12T15:53:18.867Z,100628.38
2022-09-12T15:55:45.733Z,100620.81
2022-09-12T15:58:12.986Z,100587.13
2022-09-12T16:00:39.621Z,100550.25
2022-09-12T16:03:06.568Z,100560.97
2022-09-12T16:05:33.424Z,100545.31
2022-09-12T16:08:00.139Z,100605.81
2022-09-12T16:10:30.246Z,100564.28
2022-09-12T16:12:57.877Z,100602.03
2022-09-12T16:15:33.515Z,100565.75
2022-09-12T16:18:00.222Z,100593.53
2022-09-12T16:20:27.205Z,100592.56
2022-09-12T16:22:53.782Z,100517.22
2022-09-12T16:25:24.377Z,100390.31
2022-09-12T16:27:51.229Z,100116.13
2022-09-12T16:30:18.006Z,100581.66
2022-09-12T16:32:44.838Z,100498.53
2022-09-12T16:35:11.457Z,100574.78
2022-09-12T16:37:38.583Z,100569.09
2022-09-12T16:40:06.534Z,100573.06
2022-09-12T16:42:34.140Z,100470.84
2022-09-12T16:45:00.865Z,100345.78
2022-09-12T16:47:27.699Z,100572.56
2022-09-12T16:49:54.547Z,100471.88
2022-09-12T16:52:21.581Z,100382.34
2022-09-12T16:54:48.213Z,100556.72
2022-09-12T16:57:15.813Z,100396.22
2022-09-12T16:59:43.611Z,100570.06
2022-09-12T17:02:13.640Z,100506.91
2022-09-12T17:04:40.575Z,100568.22
2022-09-12T17:07:08.040Z,100492.88
2022-09-12T17:09:35.059Z,100557.34
2022-09-12T17:12:02.063Z,100536.31
2022-09-12T17:14:28.704Z,100491.41
2022-09-12T17:16:55.565Z,100550.53
2022-09-12T17:19:32.258Z,100439.81
2022-09-12T17:21:59.190Z,100491.88
2022-09-12T17:24:26.771Z,100546.09
2022-09-12T17:26:54.872Z,100470.16
2022-09-12T17:29:21.480Z,100495.03
2022-09-12T17:31:48.817Z,100552.16
2022-09-12T17:34:16.637Z,100543.03
2022-09-12T17:36:45.475Z,100492.97
2022-09-12T17:39:13.910Z,100545.00
2022-09-12T17:41:46.234Z,100417.41
2022-09-12T17:44:15.028Z,100538.56
2022-09-12T17:46:43.113Z,100534.69
2022-09-12T17:49:18.714Z,100400.13
2022-09-12T17:51:45.720Z,100410.31
2022-09-12T17:54:16.111Z,100464.16
2022-09-12T17:56:45.612Z,100543.78
2022-09-12T17:59:15.996Z,100536.41
2022-09-12T18:02:02.028Z,100539.66
2022-09-12T18:04:28.847Z,100396.53
2022-09-12T18:06:57.774Z,100545.66
2022-09-12T18:09:27.938Z,100455.84
2022-09-12T18:11:55.432Z,100506.28
2022-09-12T18:14:22.905Z,100448.44
2022-09-12T18:16:50.424Z,100415.63
2022-09-12T18:19:17.287Z,100538.47
2022-09-12T18:21:44.112Z,100441.25
2022-09-12T18:24:12.642Z,100531.38
2022-09-12T18:26:39.462Z,100529.28
2022-09-12T18:29:06.293Z,100530.34
2022-09-12T18:31:33.063Z,100494.56
2022-09-12T18:34:00.950Z,100530.47
2022-09-12T18:36:28.408Z,100534.56
2022-09-12T18:38:57.405Z,100535.19
2022-09-12T18:41:24.830Z,100539.31
2022-09-12T18:43:59.665Z,100529.91
2022-09-12T18:46:27.972Z,100456.78
2022-09-12T18:48:57.684Z,100422.88
2022-09-12T18:51:34.654Z,100528.44
2022-09-12T18:54:05.398Z,100536.22
2022-09-12T18:56:34.380Z,100406.41
2022-09-12T18:59:03.576Z,100499.75
2022-09-12T19:01:32.820Z,100505.69
2022-09-12T19:04:02.851Z,100338.31
2022-09-12T19:06:36.869Z,100508.34
2022-09-12T19:09:08.046Z,100379.97
2022-09-12T19:11:37.164Z,100348.97
2022-09-12T19:14:04.761Z,100533.84
2022-09-12T19:16:32.061Z,100535.75
2022-09-12T19:18:59.179Z,100361.78
2022-09-12T19:21:28.343Z,100532.38
2022-09-12T19:24:05.501Z,100447.38
2022-09-12T19:26:33.051Z,100530.44
2022-09-12T19:29:02.481Z,100530.50
2022-09-12T19:31:29.908Z,100455.72
2022-09-12T19:34:01.003Z,100530.03
2022-09-12T19:36:46.730Z,100251.75
2022-09-12T19:39:17.770Z,100445.16
2022-09-12T19:41:45.788Z,100528.31
2022-09-12T19:44:13.301Z,100524.88
2022-09-12T19:46:41.773Z,100524.38
2022-09-12T19:49:11.780Z,100516.97
2022-09-12T19:51:38.608Z,100435.69
2022-09-12T19:54:06.332Z,100462.53
2022-09-12T19:56:33.028Z,100529.78
2022-09-12T19:59:00.196Z,100165.94
2022-09-12T20:01:30.804Z,100526.63
2022-09-12T20:03:58.723Z,100418.03
2022-09-12T20:06:26.071Z,100258.50
2022-09-12T20:08:53.763Z,100535.22
2022-09-12T20:11:25.536Z,100504.41
2022-09-12T20:13:53.489Z,100548.28
2022-09-12T20:16:30.163Z,100483.72
2022-09-12T20:18:59.711Z,100527.81
2022-09-12T20:21:32.694Z,100536.59
2022-09-12T20:24:07.497Z,100436.41
2022-09-12T20:26:34.320Z,100495.41
2022-09-12T20:29:01.274Z,100452.31
2022-09-12T20:31:28.693Z,100528.88
2022-09-12T20:33:56.685Z,100536.88
2022-09-12T20:36:25.041Z,100537.94
2022-09-12T20:38:57.555Z,100535.53
2022-09-12T20:41:25.470Z,100425.81
2022-09-12T20:43:53.362Z,100530.22
2022-09-12T20:46:23.630Z,100400.56
2022-09-12T20:48:51.265Z,100439.63
2022-09-12T20:51:22.091Z,100411.47
2022-09-12T20:53:55.689Z,100536.59
2022-09-12T20:56:23.682Z,100526.78
2022-09-12T20:58:51.217Z,100352.72
2022-09-12T21:01:21.415Z,100525.94
2022-09-12T21:03:51.436Z,100521.69
2022-09-12T21:06:18.533Z,100436.69
2022-09-12T21:08:47.559Z,100519.56
2022-09-12T21:11:16.642Z,100431.63
2022-09-12T21:13:43.397Z,100451.28
2022-09-12T21:16:18.650Z,100452.06
2022-09-12T21:18:45.942Z,100487.97
2022-09-12T21:21:14.227Z,100505.75
2022-09-12T21:25:58.430Z,100462.97
2022-09-12T21:28:25.367Z,100494.59
2022-09-12T21:30:52.333Z,100460.84
2022-09-12T21:33:20.893Z,100422.84
2022-09-12T21:35:48.984Z,100433.47
2022-09-12T21:38:19.733Z,100327.97
2022-09-12T21:40:47.687Z,100416.16
2022-09-12T21:43:14.687Z,100470.94
2022-09-12T21:45:41.328Z,100399.41
2022-09-12T21:48:08.330Z,100451.78
2022-09-12T21:50:35.168Z,100432.88
2022-09-12T21:53:01.953Z,100494.84
2022-09-12T21:55:29.347Z,100498.03
2022-09-12T21:57:56.248Z,100466.94
2022-09-12T22:00:23.382Z,100493.78
2022-09-12T22:02:50.663Z,100471.94
2022-09-12T22:05:21.266Z,100418.72
2022-09-12T22:07:49.598Z,100494.81
2022-09-12T22:10:16.559Z,100334.47
2022-09-12T22:12:46.217Z,100426.69
2022-09-12T22:15:38.941Z,100498.72
2022-09-12T22:18:01.010Z,100500.00
2022-09-12T22:20:27.603Z,100492.56
2022-09-12T22:23:13.605Z,100315.66
2022-09-12T22:25:40.447Z,100275.28
2022-09-12T22:28:07.210Z,100489.34
2022-09-12T22:30:34.692Z,100371.41
2022-09-12T22:33:01.471Z,100367.41
2022-09-12T22:35:28.202Z,100490.59
2022-09-12T22:37:54.716Z,100362.31
2022-09-12T22:40:21.403Z,100500.41
2022-09-12T22:42:50.898Z,100420.03
2022-09-12T22:45:18.323Z,100513.09
2022-09-12T22:47:44.816Z,100476.63
2022-09-12T22:50:12.187Z,100386.34
2022-09-12T22:52:38.711Z,100519.38
2022-09-12T22:55:05.508Z,100490.09
2022-09-12T22:57:32.225Z,100513.25
2022-09-12T22:59:58.987Z,100243.44
2022-09-12T23:02:25.692Z,100511.91
2022-09-12T23:04:52.420Z,100348.72
2022-09-12T23:07:19.087Z,100427.16
2022-09-12T23:09:46.319Z,100518.75
